Disclaimer

Please do not use the information listed here in-flight or in-navigation, as they are not provided to us by the airports but are provided by volunteers, so they might be outdated.

Search


Regions


Airport information page

Radio informations:
Tower (TWR) - 118.2 MHz
Ground (GND) - 121.7 MHz
RDO - 5637 MHz

Airport informations:
Latitude: 36° 24' 19.51" N
Longitude: 028° 05' 10.29" E
Elevation: 17 feet - 5 meters
Operating hours: 24 hour operations
Operating agency: Civil government, landing fees and diplomatic clearance may be required
Timezone: UTC+2(+3DT) - Last Sunday in March to last Sunday in October
Fuel: Jet A1, without icing nhibitor.

100/130 MIL Spec, low lead, aviation gasoline (BLUE)

Runway information:
07/25 - 10846 x 148 feet< - >3306 x 45 meters

Recent METARs:
LGRP 170850Z 27007G17KT CAVOK 13/02 Q1021 NOSIG
LGRP 170920Z 20008KT CAVOK 13/03 Q1021 NOSIG
LGRP 170950Z 20011KT CAVOK 13/03 Q1021 NOSIG

Airport on the map: